sensor_id;sensor_type;location;lat;lon;timestamp;pressure;altitude;pressure_sealevel;temperature;humidity
20628;BME280;10473;42.734;24.258;2022-08-19T00:00:09;91742.94;;;22.33;55.16
20628;BME280;10473;42.734;24.258;2022-08-19T00:02:38;91740.81;;;22.28;55.52
20628;BME280;10473;42.734;24.258;2022-08-19T00:05:07;91743.50;;;22.28;55.32
20628;BME280;10473;42.734;24.258;2022-08-19T00:07:35;91741.13;;;22.30;55.39
20628;BME280;10473;42.734;24.258;2022-08-19T00:10:04;91734.25;;;22.29;55.23
20628;BME280;10473;42.734;24.258;2022-08-19T00:12:33;91726.16;;;22.29;55.30
20628;BME280;10473;42.734;24.258;2022-08-19T00:15:05;91732.69;;;22.19;55.36
20628;BME280;10473;42.734;24.258;2022-08-19T00:17:33;91726.25;;;22.25;55.57
20628;BME280;10473;42.734;24.258;2022-08-19T00:20:00;91721.03;;;22.31;55.19
20628;BME280;10473;42.734;24.258;2022-08-19T00:22:28;91724.81;;;22.33;55.41
20628;BME280;10473;42.734;24.258;2022-08-19T00:24:56;91729.53;;;22.20;55.33
20628;BME280;10473;42.734;24.258;2022-08-19T00:27:24;91722.81;;;22.25;54.21
20628;BME280;10473;42.734;24.258;2022-08-19T00:29:52;91719.53;;;22.30;53.30
20628;BME280;10473;42.734;24.258;2022-08-19T00:32:21;91718.53;;;22.36;52.55
20628;BME280;10473;42.734;24.258;2022-08-19T00:34:48;91701.34;;;22.21;53.17
20628;BME280;10473;42.734;24.258;2022-08-19T00:37:18;91717.41;;;22.25;53.95
20628;BME280;10473;42.734;24.258;2022-08-19T00:39:45;91710.25;;;22.31;53.59
20628;BME280;10473;42.734;24.258;2022-08-19T00:42:13;91715.38;;;22.38;53.90
20628;BME280;10473;42.734;24.258;2022-08-19T00:44:41;91712.41;;;22.14;53.84
20628;BME280;10473;42.734;24.258;2022-08-19T00:47:09;91719.19;;;21.76;54.91
20628;BME280;10473;42.734;24.258;2022-08-19T00:49:46;91720.00;;;22.07;54.69
20628;BME280;10473;42.734;24.258;2022-08-19T00:52:21;91709.53;;;22.09;54.27
20628;BME280;10473;42.734;24.258;2022-08-19T00:54:51;91719.81;;;22.01;54.59
20628;BME280;10473;42.734;24.258;2022-08-19T00:57:23;91720.31;;;21.87;55.05
20628;BME280;10473;42.734;24.258;2022-08-19T00:59:56;91711.16;;;21.85;54.99
20628;BME280;10473;42.734;24.258;2022-08-19T01:02:26;91712.16;;;22.00;55.20
20628;BME280;10473;42.734;24.258;2022-08-19T01:04:59;91714.44;;;22.01;55.73
20628;BME280;10473;42.734;24.258;2022-08-19T01:07:27;91708.00;;;22.08;55.90
20628;BME280;10473;42.734;24.258;2022-08-19T01:09:55;91711.97;;;22.16;55.65
20628;BME280;10473;42.734;24.258;2022-08-19T01:12:23;91719.63;;;22.17;55.67
20628;BME280;10473;42.734;24.258;2022-08-19T01:14:51;91718.28;;;22.22;55.25
20628;BME280;10473;42.734;24.258;2022-08-19T01:17:20;91723.56;;;22.25;55.52
20628;BME280;10473;42.734;24.258;2022-08-19T01:19:48;91716.91;;;22.17;54.96
20628;BME280;10473;42.734;24.258;2022-08-19T01:22:26;91722.81;;;22.25;54.90
20628;BME280;10473;42.734;24.258;2022-08-19T01:24:55;91724.25;;;22.17;55.28
20628;BME280;10473;42.734;24.258;2022-08-19T01:27:23;91731.47;;;22.20;55.69
20628;BME280;10473;42.734;24.258;2022-08-19T01:29:51;91716.28;;;21.92;55.47
20628;BME280;10473;42.734;24.258;2022-08-19T01:32:19;91724.75;;;22.03;55.64
20628;BME280;10473;42.734;24.258;2022-08-19T01:34:47;91722.41;;;22.05;55.46
20628;BME280;10473;42.734;24.258;2022-08-19T01:37:15;91725.31;;;21.98;56.26
20628;BME280;10473;42.734;24.258;2022-08-19T01:39:44;91721.69;;;21.92;55.99
20628;BME280;10473;42.734;24.258;2022-08-19T01:42:12;91729.09;;;21.79;56.32
20628;BME280;10473;42.734;24.258;2022-08-19T01:44:40;91729.09;;;21.79;56.32
20628;BME280;10473;42.734;24.258;2022-08-19T01:47:08;91737.81;;;21.83;56.33
20628;BME280;10473;42.734;24.258;2022-08-19T01:49:36;91733.44;;;21.64;57.05
20628;BME280;10473;42.734;24.258;2022-08-19T01:52:05;91737.44;;;21.72;57.34
20628;BME280;10473;42.734;24.258;2022-08-19T01:54:33;91722.19;;;21.78;57.23
20628;BME280;10473;42.734;24.258;2022-08-19T01:57:05;91731.16;;;21.75;57.17
20628;BME280;10473;42.734;24.258;2022-08-19T01:59:34;91724.06;;;21.68;57.26
20628;BME280;10473;42.734;24.258;2022-08-19T02:02:04;91734.06;;;21.68;57.39
20628;BME280;10473;42.734;24.258;2022-08-19T02:04:34;91719.06;;;21.67;57.76
20628;BME280;10473;42.734;24.258;2022-08-19T02:07:04;91722.53;;;21.67;57.68
20628;BME280;10473;42.734;24.258;2022-08-19T02:09:34;91716.63;;;21.60;57.50
20628;BME280;10473;42.734;24.258;2022-08-19T02:12:05;91709.72;;;21.59;57.33
20628;BME280;10473;42.734;24.258;2022-08-19T02:14:34;91725.06;;;21.49;57.25
20628;BME280;10473;42.734;24.258;2022-08-19T02:17:02;91717.75;;;21.50;57.53
20628;BME280;10473;42.734;24.258;2022-08-19T02:19:30;91714.97;;;21.41;58.03
20628;BME280;10473;42.734;24.258;2022-08-19T02:21:59;91728.03;;;21.42;57.88
20628;BME280;10473;42.734;24.258;2022-08-19T02:24:27;91721.56;;;21.40;57.49
20628;BME280;10473;42.734;24.258;2022-08-19T02:26:55;91722.25;;;21.19;58.25
20628;BME280;10473;42.734;24.258;2022-08-19T02:29:24;91730.84;;;21.26;57.90
20628;BME280;10473;42.734;24.258;2022-08-19T02:31:52;91724.22;;;21.06;58.18
20628;BME280;10473;42.734;24.258;2022-08-19T02:34:20;91727.53;;;21.10;58.63
20628;BME280;10473;42.734;24.258;2022-08-19T02:36:47;91717.94;;;21.09;58.42
20628;BME280;10473;42.734;24.258;2022-08-19T02:39:15;91722.25;;;21.19;58.33
20628;BME280;10473;42.734;24.258;2022-08-19T02:41:42;91722.78;;;21.14;58.23
20628;BME280;10473;42.734;24.258;2022-08-19T02:44:10;91714.91;;;21.19;57.98
20628;BME280;10473;42.734;24.258;2022-08-19T02:46:39;91721.16;;;21.16;58.46
20628;BME280;10473;42.734;24.258;2022-08-19T02:49:07;91730.31;;;21.19;58.34
20628;BME280;10473;42.734;24.258;2022-08-19T02:51:37;91735.09;;;21.15;58.45
20628;BME280;10473;42.734;24.258;2022-08-19T02:54:06;91739.84;;;21.11;57.88
20628;BME280;10473;42.734;24.258;2022-08-19T02:56:35;91744.59;;;21.07;58.08
20628;BME280;10473;42.734;24.258;2022-08-19T02:59:04;91743.94;;;20.90;58.71
20628;BME280;10473;42.734;24.258;2022-08-19T03:01:34;91745.69;;;20.97;59.12
20628;BME280;10473;42.734;24.258;2022-08-19T03:04:05;91736.72;;;21.00;59.00
20628;BME280;10473;42.734;24.258;2022-08-19T03:06:36;91746.63;;;21.03;58.87
20628;BME280;10473;42.734;24.258;2022-08-19T03:09:04;91746.31;;;21.01;59.07
20628;BME280;10473;42.734;24.258;2022-08-19T03:11:32;91749.66;;;20.92;59.25
20628;BME280;10473;42.734;24.258;2022-08-19T03:14:01;91742.09;;;20.87;59.45
20628;BME280;10473;42.734;24.258;2022-08-19T03:16:32;91750.53;;;20.89;59.81
20628;BME280;10473;42.734;24.258;2022-08-19T03:19:02;91755.25;;;20.85;59.78
20628;BME280;10473;42.734;24.258;2022-08-19T03:21:32;91753.13;;;20.93;59.62
20628;BME280;10473;42.734;24.258;2022-08-19T03:24:02;91754.19;;;20.95;59.71
20628;BME280;10473;42.734;24.258;2022-08-19T03:26:31;91758.91;;;20.66;60.31
20628;BME280;10473;42.734;24.258;2022-08-19T03:29:01;91760.09;;;20.65;60.73
20628;BME280;10473;42.734;24.258;2022-08-19T03:31:31;91764.28;;;20.66;60.72
20628;BME280;10473;42.734;24.258;2022-08-19T03:33:59;91766.78;;;20.73;60.42
20628;BME280;10473;42.734;24.258;2022-08-19T03:36:28;91762.78;;;20.65;60.66
20628;BME280;10473;42.734;24.258;2022-08-19T03:38:59;91763.84;;;20.68;60.77
20628;BME280;10473;42.734;24.258;2022-08-19T03:41:29;91768.06;;;20.69;60.74
20628;BME280;10473;42.734;24.258;2022-08-19T03:43:58;91769.78;;;20.63;61.15
20628;BME280;10473;42.734;24.258;2022-08-19T03:46:28;91769.00;;;20.62;61.11
20628;BME280;10473;42.734;24.258;2022-08-19T03:48:58;91770.75;;;20.69;60.86
20628;BME280;10473;42.734;24.258;2022-08-19T03:51:30;91776.91;;;20.69;60.91
20628;BME280;10473;42.734;24.258;2022-08-19T03:54:01;91772.72;;;20.68;61.13
20628;BME280;10473;42.734;24.258;2022-08-19T03:56:30;91779.16;;;20.71;60.84
20628;BME280;10473;42.734;24.258;2022-08-19T03:59:00;91775.28;;;20.72;60.70
20628;BME280;10473;42.734;24.258;2022-08-19T04:01:29;91775.59;;;20.74;60.87
20628;BME280;10473;42.734;24.258;2022-08-19T04:03:58;91778.63;;;20.76;60.89
20628;BME280;10473;42.734;24.258;2022-08-19T04:06:30;91782.16;;;20.73;60.69
20628;BME280;10473;42.734;24.258;2022-08-19T04:08:59;91783.38;;;20.72;61.01
20628;BME280;10473;42.734;24.258;2022-08-19T04:11:29;91755.13;;;20.64;60.70
20628;BME280;10473;42.734;24.258;2022-08-19T04:13:57;91782.72;;;20.80;60.79
20628;BME280;10473;42.734;24.258;2022-08-19T04:16:26;91784.66;;;20.80;60.88
20628;BME280;10473;42.734;24.258;2022-08-19T04:18:55;91786.38;;;20.86;60.58
20628;BME280;10473;42.734;24.258;2022-08-19T04:21:25;91788.13;;;20.93;60.61
20628;BME280;10473;42.734;24.258;2022-08-19T04:23:55;91785.97;;;21.13;60.22
20628;BME280;10473;42.734;24.258;2022-08-19T04:26:25;91786.03;;;21.34;59.92
20628;BME280;10473;42.734;24.258;2022-08-19T04:28:53;91786.84;;;21.56;59.38
20628;BME280;10473;42.734;24.258;2022-08-19T04:31:23;91786.69;;;21.85;60.07
20628;BME280;10473;42.734;24.258;2022-08-19T04:33:52;91790.88;;;22.20;58.74
20628;BME280;10473;42.734;24.258;2022-08-19T04:36:22;91785.00;;;22.55;58.81
20628;BME280;10473;42.734;24.258;2022-08-19T04:38:55;91785.03;;;22.95;57.93
20628;BME280;10473;42.734;24.258;2022-08-19T04:41:23;91785.16;;;23.31;58.24
20628;BME280;10473;42.734;24.258;2022-08-19T04:44:08;91786.47;;;23.75;56.90
20628;BME280;10473;42.734;24.258;2022-08-19T04:46:36;91782.31;;;24.19;56.63
20628;BME280;10473;42.734;24.258;2022-08-19T04:49:05;91776.72;;;24.58;55.16
20628;BME280;10473;42.734;24.258;2022-08-19T04:51:34;91779.13;;;25.07;54.30
20628;BME280;10473;42.734;24.258;2022-08-19T04:54:03;91778.94;;;25.52;54.36
20628;BME280;10473;42.734;24.258;2022-08-19T04:56:31;91769.50;;;25.95;53.98
20628;BME280;10473;42.734;24.258;2022-08-19T04:58:59;91765.75;;;26.30;52.89
20628;BME280;10473;42.734;24.258;2022-08-19T05:01:30;91771.09;;;26.77;52.00
20628;BME280;10473;42.734;24.258;2022-08-19T05:04:00;91767.88;;;27.08;49.45
20628;BME280;10473;42.734;24.258;2022-08-19T05:06:28;91775.44;;;27.47;48.69
20628;BME280;10473;42.734;24.258;2022-08-19T05:08:59;91766.66;;;27.92;47.78
20628;BME280;10473;42.734;24.258;2022-08-19T05:11:31;91773.31;;;28.31;47.94
20628;BME280;10473;42.734;24.258;2022-08-19T05:13:59;91773.50;;;28.68;45.85
20628;BME280;10473;42.734;24.258;2022-08-19T05:16:27;91776.56;;;29.01;47.07
20628;BME280;10473;42.734;24.258;2022-08-19T05:18:55;91778.78;;;29.28;41.63
20628;BME280;10473;42.734;24.258;2022-08-19T05:21:41;91782.69;;;29.52;40.84
20628;BME280;10473;42.734;24.258;2022-08-19T05:24:28;91781.13;;;29.77;42.61
20628;BME280;10473;42.734;24.258;2022-08-19T05:26:58;91779.31;;;30.10;42.79
20628;BME280;10473;42.734;24.258;2022-08-19T05:29:27;91789.16;;;30.39;43.66
20628;BME280;10473;42.734;24.258;2022-08-19T05:31:55;91793.69;;;30.58;40.04
20628;BME280;10473;42.734;24.258;2022-08-19T05:34:24;91791.84;;;30.28;41.47
20628;BME280;10473;42.734;24.258;2022-08-19T05:36:54;91790.38;;;29.54;44.84
20628;BME280;10473;42.734;24.258;2022-08-19T05:39:24;91790.59;;;30.23;44.11
20628;BME280;10473;42.734;24.258;2022-08-19T05:41:54;91797.69;;;30.57;42.39
20628;BME280;10473;42.734;24.258;2022-08-19T05:44:26;91798.69;;;30.65;43.08
20628;BME280;10473;42.734;24.258;2022-08-19T05:46:57;91798.69;;;30.65;40.81
20628;BME280;10473;42.734;24.258;2022-08-19T05:49:26;91811.41;;;30.68;38.95
20628;BME280;10473;42.734;24.258;2022-08-19T05:51:55;91801.97;;;30.69;41.90
20628;BME280;10473;42.734;24.258;2022-08-19T05:54:23;91802.00;;;30.80;40.66
20628;BME280;10473;42.734;24.258;2022-08-19T05:56:52;91809.69;;;30.12;41.16
20628;BME280;10473;42.734;24.258;2022-08-19T05:59:20;91806.59;;;29.57;42.30
20628;BME280;10473;42.734;24.258;2022-08-19T06:01:51;91813.81;;;30.02;42.75
20628;BME280;10473;42.734;24.258;2022-08-19T06:04:21;91809.38;;;30.10;45.95
20628;BME280;10473;42.734;24.258;2022-08-19T06:06:50;91828.75;;;30.49;44.56
20628;BME280;10473;42.734;24.258;2022-08-19T06:09:19;91827.34;;;30.70;42.16
20628;BME280;10473;42.734;24.258;2022-08-19T06:11:48;91824.44;;;31.01;41.05
20628;BME280;10473;42.734;24.258;2022-08-19T06:14:21;91822.25;;;31.21;39.36
20628;BME280;10473;42.734;24.258;2022-08-19T06:16:50;91825.00;;;31.27;39.48
20628;BME280;10473;42.734;24.258;2022-08-19T06:19:20;91835.63;;;30.97;40.01
20628;BME280;10473;42.734;24.258;2022-08-19T06:21:49;91839.63;;;30.96;40.19
20628;BME280;10473;42.734;24.258;2022-08-19T06:24:19;91837.81;;;30.77;40.60
20628;BME280;10473;42.734;24.258;2022-08-19T06:26:48;91829.25;;;30.58;39.53
20628;BME280;10473;42.734;24.258;2022-08-19T06:29:17;91846.63;;;30.02;42.15
20628;BME280;10473;42.734;24.258;2022-08-19T06:31:47;91834.75;;;29.43;44.42
20628;BME280;10473;42.734;24.258;2022-08-19T06:34:17;91841.50;;;30.15;41.48
20628;BME280;10473;42.734;24.258;2022-08-19T06:36:49;91845.44;;;30.56;48.13
20628;BME280;10473;42.734;24.258;2022-08-19T06:39:19;91839.34;;;29.88;43.84
20628;BME280;10473;42.734;24.258;2022-08-19T06:41:49;91841.63;;;29.33;43.00
20628;BME280;10473;42.734;24.258;2022-08-19T06:44:18;91847.63;;;29.68;42.68
20628;BME280;10473;42.734;24.258;2022-08-19T06:46:46;91843.13;;;28.43;45.21
20628;BME280;10473;42.734;24.258;2022-08-19T06:49:18;91843.03;;;29.23;50.21
20628;BME280;10473;42.734;24.258;2022-08-19T06:51:47;91859.72;;;29.93;45.66
20628;BME280;10473;42.734;24.258;2022-08-19T06:54:16;91854.66;;;30.11;45.11
20628;BME280;10473;42.734;24.258;2022-08-19T06:56:44;91858.69;;;30.69;41.02
20628;BME280;10473;42.734;24.258;2022-08-19T06:59:14;91847.09;;;31.12;41.72
20628;BME280;10473;42.734;24.258;2022-08-19T07:01:44;91847.94;;;31.51;39.44
20628;BME280;10473;42.734;24.258;2022-08-19T07:04:14;91847.69;;;31.82;39.99
20628;BME280;10473;42.734;24.258;2022-08-19T07:06:44;91847.44;;;30.61;37.84
20628;BME280;10473;42.734;24.258;2022-08-19T07:09:14;91848.84;;;31.10;38.11
20628;BME280;10473;42.734;24.258;2022-08-19T07:11:44;91854.66;;;31.39;39.00
20628;BME280;10473;42.734;24.258;2022-08-19T07:14:13;91849.19;;;31.83;37.89
20628;BME280;10473;42.734;24.258;2022-08-19T07:16:44;91847.88;;;32.17;38.82
20628;BME280;10473;42.734;24.258;2022-08-19T07:19:12;91842.88;;;32.43;39.58
20628;BME280;10473;42.734;24.258;2022-08-19T07:21:40;91843.09;;;31.02;36.05
20628;BME280;10473;42.734;24.258;2022-08-19T07:24:10;91837.00;;;30.65;39.50
20628;BME280;10473;42.734;24.258;2022-08-19T07:26:39;91842.69;;;31.20;37.50
20628;BME280;10473;42.734;24.258;2022-08-19T07:29:08;91838.13;;;30.95;38.13
20628;BME280;10473;42.734;24.258;2022-08-19T07:31:36;91837.84;;;30.88;37.62
20628;BME280;10473;42.734;24.258;2022-08-19T07:34:05;91830.28;;;30.61;36.36
20628;BME280;10473;42.734;24.258;2022-08-19T07:36:36;91836.94;;;30.54;37.84
20628;BME280;10473;42.734;24.258;2022-08-19T07:39:08;91841.13;;;31.08;39.79
20628;BME280;10473;42.734;24.258;2022-08-19T07:41:38;91834.00;;;31.49;38.36
20628;BME280;10473;42.734;24.258;2022-08-19T07:44:07;91838.47;;;31.85;37.12
20628;BME280;10473;42.734;24.258;2022-08-19T07:46:37;91836.91;;;32.23;37.27
20628;BME280;10473;42.734;24.258;2022-08-19T07:49:07;91837.41;;;32.43;35.81
20628;BME280;10473;42.734;24.258;2022-08-19T07:51:35;91842.03;;;32.70;36.29
20628;BME280;10473;42.734;24.258;2022-08-19T07:54:03;91837.97;;;32.93;35.61
20628;BME280;10473;42.734;24.258;2022-08-19T07:56:31;91839.84;;;33.09;34.78
20628;BME280;10473;42.734;24.258;2022-08-19T07:59:00;91836.94;;;32.12;34.70
20628;BME280;10473;42.734;24.258;2022-08-19T08:01:28;91832.63;;;32.49;34.95
20628;BME280;10473;42.734;24.258;2022-08-19T08:03:56;91843.25;;;32.80;35.58
20628;BME280;10473;42.734;24.258;2022-08-19T08:06:42;91843.03;;;32.78;35.12
20628;BME280;10473;42.734;24.258;2022-08-19T08:09:29;91835.44;;;32.95;33.69
20628;BME280;10473;42.734;24.258;2022-08-19T08:12:00;91846.19;;;32.93;32.86
20628;BME280;10473;42.734;24.258;2022-08-19T08:14:32;91844.59;;;33.09;35.56
20628;BME280;10473;42.734;24.258;2022-08-19T08:17:01;91843.00;;;33.24;37.17
20628;BME280;10473;42.734;24.258;2022-08-19T08:19:29;91842.44;;;33.42;33.43
20628;BME280;10473;42.734;24.258;2022-08-19T08:21:59;91847.03;;;32.66;34.66
20628;BME280;10473;42.734;24.258;2022-08-19T08:24:28;91832.91;;;32.46;36.14
20628;BME280;10473;42.734;24.258;2022-08-19T08:26:59;91829.47;;;32.91;35.84
20628;BME280;10473;42.734;24.258;2022-08-19T08:29:28;91832.19;;;32.34;35.49
20628;BME280;10473;42.734;24.258;2022-08-19T08:31:58;91832.47;;;32.03;36.16
20628;BME280;10473;42.734;24.258;2022-08-19T08:34:25;91826.75;;;32.01;35.05
20628;BME280;10473;42.734;24.258;2022-08-19T08:36:53;91819.22;;;32.29;39.18
20628;BME280;10473;42.734;24.258;2022-08-19T08:39:21;91822.06;;;32.70;35.32
20628;BME280;10473;42.734;24.258;2022-08-19T08:41:54;91814.09;;;32.66;34.90
20628;BME280;10473;42.734;24.258;2022-08-19T08:44:31;91827.44;;;32.97;34.58
20628;BME280;10473;42.734;24.258;2022-08-19T08:47:14;91818.44;;;33.02;34.64
20628;BME280;10473;42.734;24.258;2022-08-19T08:49:48;91822.47;;;32.33;35.09
20628;BME280;10473;42.734;24.258;2022-08-19T08:52:22;91823.28;;;31.40;35.54
20628;BME280;10473;42.734;24.258;2022-08-19T08:54:54;91812.25;;;30.96;35.97
20628;BME280;10473;42.734;24.258;2022-08-19T08:57:27;91819.22;;;31.19;36.18
20628;BME280;10473;42.734;24.258;2022-08-19T08:59:57;91817.03;;;31.51;37.42
20628;BME280;10473;42.734;24.258;2022-08-19T09:02:27;91809.81;;;31.20;35.49
20628;BME280;10473;42.734;24.258;2022-08-19T09:04:55;91807.59;;;31.35;36.08
20628;BME280;10473;42.734;24.258;2022-08-19T09:07:36;91790.34;;;31.18;36.71
20628;BME280;10473;42.734;24.258;2022-08-19T09:10:11;91798.13;;;31.25;36.71
20628;BME280;10473;42.734;24.258;2022-08-19T09:12:50;91801.63;;;31.37;34.57
20628;BME280;10473;42.734;24.258;2022-08-19T09:15:34;91804.34;;;31.42;35.93
20628;BME280;10473;42.734;24.258;2022-08-19T09:18:08;91803.81;;;31.71;34.54
20628;BME280;10473;42.734;24.258;2022-08-19T09:20:36;91804.06;;;31.90;35.29
20628;BME280;10473;42.734;24.258;2022-08-19T09:23:03;91803.97;;;32.39;37.53
20628;BME280;10473;42.734;24.258;2022-08-19T09:25:31;91798.50;;;32.34;33.68
20628;BME280;10473;42.734;24.258;2022-08-19T09:28:01;91791.09;;;31.19;33.58
20628;BME280;10473;42.734;24.258;2022-08-19T09:30:31;91792.88;;;31.27;34.46
20628;BME280;10473;42.734;24.258;2022-08-19T09:32:59;91794.34;;;31.89;36.19
20628;BME280;10473;42.734;24.258;2022-08-19T09:35:29;91793.50;;;32.32;35.99
20628;BME280;10473;42.734;24.258;2022-08-19T09:37:58;91782.16;;;32.63;35.02
20628;BME280;10473;42.734;24.258;2022-08-19T09:40:26;91791.41;;;33.06;34.19
20628;BME280;10473;42.734;24.258;2022-08-19T09:42:54;91797.47;;;33.40;32.97
20628;BME280;10473;42.734;24.258;2022-08-19T09:45:23;91794.50;;;33.67;31.52
20628;BME280;10473;42.734;24.258;2022-08-19T09:47:51;91791.09;;;33.85;32.96
20628;BME280;10473;42.734;24.258;2022-08-19T09:50:19;91794.84;;;34.12;31.89
20628;BME280;10473;42.734;24.258;2022-08-19T09:52:49;91790.41;;;34.33;31.30
20628;BME280;10473;42.734;24.258;2022-08-19T09:55:18;91783.56;;;34.15;31.14
20628;BME280;10473;42.734;24.258;2022-08-19T09:57:46;91772.13;;;33.52;30.83
20628;BME280;10473;42.734;24.258;2022-08-19T10:00:14;91771.41;;;32.65;32.17
20628;BME280;10473;42.734;24.258;2022-08-19T10:02:42;91778.66;;;32.68;35.79
20628;BME280;10473;42.734;24.258;2022-08-19T10:05:09;91770.97;;;33.07;34.29
20628;BME280;10473;42.734;24.258;2022-08-19T10:07:56;91773.38;;;33.16;32.54
20628;BME280;10473;42.734;24.258;2022-08-19T10:10:23;91759.34;;;32.33;32.81
20628;BME280;10473;42.734;24.258;2022-08-19T10:12:52;91716.88;;;31.66;33.71
20628;BME280;10473;42.734;24.258;2022-08-19T10:15:21;91774.78;;;32.36;35.38
20628;BME280;10473;42.734;24.258;2022-08-19T10:17:48;91771.88;;;32.80;34.48
20628;BME280;10473;42.734;24.258;2022-08-19T10:20:16;91781.38;;;33.14;33.25
20628;BME280;10473;42.734;24.258;2022-08-19T10:22:44;91772.69;;;33.45;33.50
20628;BME280;10473;42.734;24.258;2022-08-19T10:25:13;91764.47;;;33.69;32.10
20628;BME280;10473;42.734;24.258;2022-08-19T10:27:42;91776.41;;;33.77;30.83
20628;BME280;10473;42.734;24.258;2022-08-19T10:30:11;91769.84;;;33.86;31.26
20628;BME280;10473;42.734;24.258;2022-08-19T10:32:39;91779.13;;;33.83;31.54
20628;BME280;10473;42.734;24.258;2022-08-19T10:35:07;91767.06;;;33.27;31.00
20628;BME280;10473;42.734;24.258;2022-08-19T10:37:36;91761.06;;;33.28;31.57
20628;BME280;10473;42.734;24.258;2022-08-19T10:40:06;91759.41;;;33.14;30.90
20628;BME280;10473;42.734;24.258;2022-08-19T10:42:36;91766.38;;;33.15;33.10
20628;BME280;10473;42.734;24.258;2022-08-19T10:45:05;91762.72;;;33.07;31.09
20628;BME280;10473;42.734;24.258;2022-08-19T10:47:33;91753.13;;;32.84;31.14
20628;BME280;10473;42.734;24.258;2022-08-19T10:50:01;91767.44;;;33.12;31.85
20628;BME280;10473;42.734;24.258;2022-08-19T10:52:47;91777.16;;;33.48;32.10
20628;BME280;10473;42.734;24.258;2022-08-19T10:55:17;91767.09;;;33.56;29.62
20628;BME280;10473;42.734;24.258;2022-08-19T10:58:10;91774.94;;;33.76;31.14
20628;BME280;10473;42.734;24.258;2022-08-19T11:00:38;91765.66;;;34.03;32.55
20628;BME280;10473;42.734;24.258;2022-08-19T11:03:06;91765.72;;;34.22;30.90
20628;BME280;10473;42.734;24.258;2022-08-19T11:05:34;91757.38;;;34.33;29.67
20628;BME280;10473;42.734;24.258;2022-08-19T11:08:03;91767.63;;;34.32;29.50
20628;BME280;10473;42.734;24.258;2022-08-19T11:10:31;91770.50;;;34.45;30.10
20628;BME280;10473;42.734;24.258;2022-08-19T11:12:59;91758.22;;;33.98;29.31
20628;BME280;10473;42.734;24.258;2022-08-19T11:15:28;91753.44;;;33.45;30.44
20628;BME280;10473;42.734;24.258;2022-08-19T11:18:00;91750.56;;;32.97;31.67
20628;BME280;10473;42.734;24.258;2022-08-19T11:20:27;91751.91;;;32.74;31.98
20628;BME280;10473;42.734;24.258;2022-08-19T11:22:56;91751.31;;;33.27;33.14
20628;BME280;10473;42.734;24.258;2022-08-19T11:25:24;91755.56;;;33.58;31.93
20628;BME280;10473;42.734;24.258;2022-08-19T11:27:52;91760.63;;;33.78;31.64
20628;BME280;10473;42.734;24.258;2022-08-19T11:30:19;91756.00;;;33.67;30.30
20628;BME280;10473;42.734;24.258;2022-08-19T11:32:48;91744.03;;;33.35;31.27
20628;BME280;10473;42.734;24.258;2022-08-19T11:35:16;91756.03;;;33.62;31.55
20628;BME280;10473;42.734;24.258;2022-08-19T11:37:46;91753.41;;;33.80;32.63
20628;BME280;10473;42.734;24.258;2022-08-19T11:40:14;91743.03;;;33.92;31.94
20628;BME280;10473;42.734;24.258;2022-08-19T11:42:41;91747.56;;;34.13;32.32
20628;BME280;10473;42.734;24.258;2022-08-19T11:45:25;91748.53;;;33.92;30.51
20628;BME280;10473;42.734;24.258;2022-08-19T11:47:55;91737.13;;;34.06;30.98
20628;BME280;10473;42.734;24.258;2022-08-19T11:50:23;91735.97;;;34.20;29.94
20628;BME280;10473;42.734;24.258;2022-08-19T11:52:54;91731.63;;;34.30;30.25
20628;BME280;10473;42.734;24.258;2022-08-19T11:55:21;91733.13;;;34.31;30.10
20628;BME280;10473;42.734;24.258;2022-08-19T11:57:49;91734.94;;;34.23;31.02
20628;BME280;10473;42.734;24.258;2022-08-19T12:00:17;91733.13;;;34.07;30.47
20628;BME280;10473;42.734;24.258;2022-08-19T12:02:45;91722.63;;;33.82;30.93
20628;BME280;10473;42.734;24.258;2022-08-19T12:05:14;91724.75;;;33.94;31.22
20628;BME280;10473;42.734;24.258;2022-08-19T12:07:42;91715.84;;;34.07;31.30
20628;BME280;10473;42.734;24.258;2022-08-19T12:10:10;91718.00;;;33.42;31.46
20628;BME280;10473;42.734;24.258;2022-08-19T12:12:38;91723.97;;;33.46;30.73
20628;BME280;10473;42.734;24.258;2022-08-19T12:15:09;91717.41;;;33.19;30.24
20628;BME280;10473;42.734;24.258;2022-08-19T12:17:38;91701.13;;;32.97;31.86
20628;BME280;10473;42.734;24.258;2022-08-19T12:20:07;91708.88;;;32.93;31.03
20628;BME280;10473;42.734;24.258;2022-08-19T12:22:38;91706.25;;;33.06;31.44
20628;BME280;10473;42.734;24.258;2022-08-19T12:25:09;91710.53;;;33.07;30.34
20628;BME280;10473;42.734;24.258;2022-08-19T12:27:37;91702.78;;;33.06;30.47
20628;BME280;10473;42.734;24.258;2022-08-19T12:30:08;91714.44;;;33.17;30.93
20628;BME280;10473;42.734;24.258;2022-08-19T12:32:36;91697.59;;;33.26;31.04
20628;BME280;10473;42.734;24.258;2022-08-19T12:35:05;91703.56;;;33.36;30.22
20628;BME280;10473;42.734;24.258;2022-08-19T12:37:34;91709.72;;;33.47;31.30
20628;BME280;10473;42.734;24.258;2022-08-19T12:40:04;91703.09;;;33.61;31.21
20628;BME280;10473;42.734;24.258;2022-08-19T12:42:32;91702.16;;;33.53;30.38
20628;BME280;10473;42.734;24.258;2022-08-19T12:45:01;91692.53;;;33.06;30.34
20628;BME280;10473;42.734;24.258;2022-08-19T12:47:28;91702.38;;;32.50;30.96
20628;BME280;10473;42.734;24.258;2022-08-19T12:49:56;91692.91;;;32.92;31.85
20628;BME280;10473;42.734;24.258;2022-08-19T12:52:25;91697.03;;;32.69;30.83
20628;BME280;10473;42.734;24.258;2022-08-19T12:54:55;91692.22;;;32.80;31.06
20628;BME280;10473;42.734;24.258;2022-08-19T12:57:27;91699.25;;;32.70;31.31
20628;BME280;10473;42.734;24.258;2022-08-19T12:59:55;91700.91;;;32.49;30.63
20628;BME280;10473;42.734;24.258;2022-08-19T13:02:23;91699.22;;;32.81;31.58